Time;durP1;ratioP1;P1;durP2;ratioP2;P2;SDS_P1;SDS_P2;PMS_P1;PMS_P2;Temp;Humidity;BMP_temperature;BMP_pressure;BME280_temperature;BME280_humidity;BME280_pressure;Samples;Min_cycle;Max_cycle;Signal;HPM_P1;HPM_P2
2022/10/24 00:01:19;;;;;;;9.70;2.70;;;;;;;15.07;100.00;100310.50;4987712;28;20511;-67
2022/10/24 00:03:46;;;;;;;9.68;2.83;;;;;;;15.05;99.96;100305.22;4987973;28;20045;-66
2022/10/24 00:06:12;;;;;;;7.50;2.88;;;;;;;15.10;99.01;100304.41;4986727;28;20161;-67
2022/10/24 00:08:39;;;;;;;11.13;3.35;;;;;;;15.07;98.95;100310.50;4985837;28;20149;-67
2022/10/24 00:11:14;;;;;;;10.77;2.95;;;;;;;15.09;98.70;100305.53;4987457;28;20528;-67
2022/10/24 00:13:40;;;;;;;9.02;3.10;;;;;;;15.07;98.12;100299.44;4986898;28;20080;-66
2022/10/24 00:16:07;;;;;;;7.75;2.30;;;;;;;15.14;97.00;100300.00;4986546;28;20124;-67
2022/10/24 00:18:32;;;;;;;6.45;2.33;;;;;;;15.16;96.95;100311.63;4986575;28;20136;-67
2022/10/24 00:20:58;;;;;;;7.38;2.45;;;;;;;15.14;96.49;100300.00;4978310;28;20054;-67
2022/10/24 00:23:23;;;;;;;6.85;2.47;;;;;;;15.22;94.79;100288.41;4986474;28;20492;-67
2022/10/24 00:25:48;;;;;;;7.63;2.17;;;;;;;15.23;94.64;100292.81;4986852;28;20033;-66
2022/10/24 00:28:13;;;;;;;10.60;2.20;;;;;;;15.26;93.66;100290.34;4986994;28;20141;-67
2022/10/24 00:30:39;;;;;;;8.25;2.15;;;;;;;15.31;93.08;100293.13;4986943;28;20389;-67
2022/10/24 00:33:04;;;;;;;7.03;2.13;;;;;;;15.30;92.74;100282.31;4985994;28;20030;-67
2022/10/24 00:35:30;;;;;;;8.57;2.33;;;;;;;15.34;92.40;100286.19;4986372;28;20113;-67
2022/10/24 00:37:55;;;;;;;8.50;2.35;;;;;;;15.33;92.17;100287.31;4983110;28;20153;-67
2022/10/24 00:40:20;;;;;;;12.10;3.22;;;;;;;15.37;91.10;100291.19;5002128;28;20026;-67
2022/10/24 00:42:47;;;;;;;9.88;2.63;;;;;;;15.44;89.81;100300.03;4985952;28;20033;-67
2022/10/24 00:45:40;;;;;;;8.02;2.70;;;;;;;15.47;90.38;100287.59;4985957;28;20409;-67
2022/10/24 00:48:13;;;;;;;7.53;2.33;;;;;;;15.51;89.17;100284.00;4985664;28;20129;-67
2022/10/24 00:50:39;;;;;;;6.78;2.30;;;;;;;15.52;88.69;100284.81;4985453;28;20046;-67
2022/10/24 00:53:04;;;;;;;7.75;2.47;;;;;;;15.51;88.46;100278.47;4986582;28;20022;-67
2022/10/24 00:55:30;;;;;;;6.55;2.40;;;;;;;15.50;88.46;100282.31;4986459;28;20030;-67
2022/10/24 00:58:00;;;;;;;7.13;2.60;;;;;;;15.53;88.06;100272.63;4985729;28;20038;-67
2022/10/24 01:00:30;;;;;;;7.68;2.75;;;;;;;15.54;87.74;100275.13;4985822;28;20031;-66
2022/10/24 01:02:55;;;;;;;9.30;2.55;;;;;;;15.49;88.07;100277.88;4985264;28;20026;-67
2022/10/24 01:05:25;;;;;;;7.78;2.40;;;;;;;15.46;88.06;100263.75;4986134;28;20049;-67
2022/10/24 01:08:29;;;;;;;7.00;2.30;;;;;;;15.48;88.96;100276.22;4983916;28;20054;-67
2022/10/24 01:11:38;;;;;;;7.85;2.80;;;;;;;15.45;88.66;100274.00;4975917;28;20096;-67
2022/10/24 01:14:39;;;;;;;5.63;2.50;;;;;;;15.45;87.88;100276.78;4986999;28;20509;-67
2022/10/24 01:17:19;;;;;;;5.20;2.58;;;;;;;15.43;87.65;100276.22;4980584;28;20046;-66
2022/10/24 01:19:59;;;;;;;9.23;2.72;;;;;;;15.51;86.25;100274.84;4985240;28;20060;-67
2022/10/24 01:22:37;;;;;;;9.35;2.78;;;;;;;15.61;86.05;100265.69;4981167;28;20023;-67
2022/10/24 01:25:12;;;;;;;;;;;;;;;15.57;87.43;100266.28;4986826;28;20556;-67
2022/10/24 01:27:46;;;;;;;7.18;2.40;;;;;;;15.50;85.89;100267.63;4986393;28;19913;-67
2022/10/24 01:30:15;;;;;;;7.70;2.75;;;;;;;15.48;85.89;100261.56;4987049;28;20058;-67
2022/10/24 01:32:58;;;;;;;11.57;2.92;;;;;;;15.50;85.67;100254.63;4987381;28;20035;-66
2022/10/24 01:35:29;;;;;;;6.47;2.70;;;;;;;15.51;84.96;100259.09;4986529;28;20052;-66
2022/10/24 01:38:06;;;;;;;7.38;2.42;;;;;;;15.64;84.31;100248.56;4983490;28;20653;-67
2022/10/24 01:40:38;;;;;;;7.70;2.83;;;;;;;15.63;84.22;100260.72;4986746;28;20096;-67
2022/10/24 01:43:09;;;;;;;11.52;2.40;;;;;;;15.59;84.03;100257.69;4986882;28;20033;-67
2022/10/24 01:45:38;;;;;;;7.95;2.95;;;;;;;15.66;83.05;100258.28;4987532;28;20030;-67
2022/10/24 01:48:08;;;;;;;5.65;2.28;;;;;;;15.66;82.98;100254.66;4987038;28;20047;-66
2022/10/24 01:50:36;;;;;;;8.35;2.50;;;;;;;15.68;82.57;100244.13;4981638;28;20031;-67
2022/10/24 01:53:03;;;;;;;8.63;2.53;;;;;;;15.67;82.35;100264.63;4983388;28;20029;-67
2022/10/24 01:55:31;;;;;;;8.13;2.75;;;;;;;15.59;83.13;100243.84;4986708;28;20109;-67
2022/10/24 01:57:56;;;;;;;7.07;2.40;;;;;;;15.61;82.83;100235.25;4985773;28;20452;-67
2022/10/24 02:00:23;;;;;;;5.97;2.53;;;;;;;15.62;82.17;100234.16;4985813;28;20118;-67
2022/10/24 02:03:00;;;;;;;9.57;2.65;;;;;;;15.69;81.91;100240.25;4986269;28;20405;-66
2022/10/24 02:05:42;;;;;;;7.75;2.30;;;;;;;15.56;82.36;100236.06;4985708;28;20027;-67
2022/10/24 02:08:13;;;;;;;6.10;2.28;;;;;;;15.56;82.06;100241.63;4985502;28;20085;-67
2022/10/24 02:10:45;;;;;;;6.10;2.17;;;;;;;15.55;81.84;100232.47;4986474;28;20608;-67
2022/10/24 02:13:15;;;;;;;7.88;2.92;;;;;;;15.54;81.89;100243.84;4985971;28;20100;-67
2022/10/24 02:15:48;;;;;;;8.00;2.50;;;;;;;15.54;81.77;100239.13;4987291;28;20023;-67
2022/10/24 02:18:14;;;;;;;6.85;2.30;;;;;;;15.49;81.48;100236.38;4989889;28;20038;-67
2022/10/24 02:21:02;;;;;;;6.57;2.25;;;;;;;15.52;81.22;100240.53;4986327;28;20034;-67
2022/10/24 02:23:54;;;;;;;7.00;2.65;;;;;;;15.54;81.78;100239.13;4950273;28;20047;-67
2022/10/24 02:26:40;;;;;;;6.32;2.17;;;;;;;15.48;81.77;100245.78;4990235;28;20054;-67
2022/10/24 02:29:23;;;;;;;4.97;2.10;;;;;;;15.43;81.69;100237.50;4987599;28;20378;-67
2022/10/24 02:31:53;;;;;;;9.25;2.10;;;;;;;15.43;81.15;100243.03;4989445;28;20042;-66
2022/10/24 02:34:21;;;;;;;5.97;1.90;;;;;;;15.47;80.98;100238.59;4989591;28;20122;-67
2022/10/24 02:36:48;;;;;;;6.40;2.35;;;;;;;15.47;80.79;100227.53;4989942;28;20030;-67
2022/10/24 02:39:15;;;;;;;7.50;1.92;;;;;;;15.53;79.69;100243.00;4989419;28;20453;-67
2022/10/24 02:41:43;;;;;;;6.90;2.10;;;;;;;15.54;79.50;100222.53;4990124;28;20014;-67
2022/10/24 02:44:11;;;;;;;5.68;2.28;;;;;;;15.52;79.73;100235.00;4989905;28;21134;-67
2022/10/24 02:46:37;;;;;;;;;;;;;;;15.53;80.73;100236.66;4990462;28;20026;-67
2022/10/24 02:49:03;;;;;;;7.15;2.22;;;;;;;15.50;79.72;100237.19;4987516;28;20325;-66
2022/10/24 02:51:37;;;;;;;5.63;1.92;;;;;;;15.44;79.91;100239.16;4989055;28;20045;-67
2022/10/24 02:54:03;;;;;;;6.82;2.20;;;;;;;15.43;79.96;100236.66;4988483;28;20033;-67
2022/10/24 02:56:29;;;;;;;5.35;1.83;;;;;;;15.44;79.67;100235.56;4984061;28;20034;-67
2022/10/24 02:58:54;;;;;;;10.50;2.25;;;;;;;15.48;78.79;100244.97;4989566;28;20381;-67
2022/10/24 03:01:19;;;;;;;6.88;2.30;;;;;;;15.49;79.04;100236.38;4988836;28;20038;-66
2022/10/24 03:03:45;;;;;;;6.65;1.80;;;;;;;15.45;79.36;100243.56;4989754;28;20410;-67
2022/10/24 03:06:11;;;;;;;6.90;2.10;;;;;;;15.48;78.81;100248.56;4987472;28;20034;-67
2022/10/24 03:08:36;;;;;;;6.65;2.22;;;;;;;15.43;78.81;100245.78;4969346;28;20047;-67
2022/10/24 03:11:02;;;;;;;6.72;2.00;;;;;;;15.42;78.94;100252.44;4976597;28;20156;-67
2022/10/24 03:13:27;;;;;;;6.60;2.05;;;;;;;15.48;78.25;100245.78;4989674;28;20053;-67
2022/10/24 03:15:52;;;;;;;5.50;1.83;;;;;;;15.51;78.36;100249.91;4988559;28;20362;-67
2022/10/24 03:18:17;;;;;;;6.30;2.07;;;;;;;15.47;78.53;100244.13;4988557;28;20034;-67
2022/10/24 03:20:43;;;;;;;7.60;1.95;;;;;;;15.48;78.50;100254.09;4988550;28;20656;-67
2022/10/24 03:23:08;;;;;;;6.75;1.73;;;;;;;15.51;78.00;100245.25;4989298;28;20037;-67
2022/10/24 03:25:33;;;;;;;7.13;2.17;;;;;;;15.52;77.74;100244.13;4988385;28;20551;-67
2022/10/24 03:27:59;;;;;;;7.10;1.88;;;;;;;15.52;77.97;100246.06;4986568;28;20026;-67
2022/10/24 03:30:24;;;;;;;7.05;1.90;;;;;;;15.53;77.93;100245.78;4988719;28;20038;-67
2022/10/24 03:32:49;;;;;;;6.20;1.90;;;;;;;15.59;76.85;100232.75;4988641;28;20026;-67
2022/10/24 03:35:15;;;;;;;7.57;1.80;;;;;;;15.61;77.24;100229.72;4988011;28;20038;-67
2022/10/24 03:37:41;;;;;;;5.55;1.67;;;;;;;15.61;77.70;100226.94;4987413;28;20089;-67
2022/10/24 03:40:07;;;;;;;6.07;1.95;;;;;;;15.54;77.64;100232.78;4988719;28;20041;-66
2022/10/24 03:42:32;;;;;;;6.38;1.60;;;;;;;15.52;77.70;100221.16;4983978;28;20109;-66
2022/10/24 03:44:58;;;;;;;7.93;2.10;;;;;;;15.50;78.15;100224.19;4988472;28;20110;-67
2022/10/24 03:47:23;;;;;;;7.40;2.00;;;;;;;15.41;78.83;100225.88;4987756;28;20235;-67
2022/10/24 03:49:48;;;;;;;6.35;2.00;;;;;;;15.40;78.61;100226.13;4986290;28;20039;-67
2022/10/24 03:52:14;;;;;;;5.93;1.92;;;;;;;15.40;78.83;100226.13;4987435;28;20038;-66
2022/10/24 03:54:39;;;;;;;7.65;2.20;;;;;;;15.33;79.30;100220.91;4986827;28;20153;-67
2022/10/24 03:57:04;;;;;;;9.13;2.42;;;;;;;15.26;79.96;100204.59;4987543;28;20105;-66
2022/10/24 03:59:30;;;;;;;6.93;3.08;;;;;;;15.25;79.59;100222.25;4986724;28;20037;-66
2022/10/24 04:01:56;;;;;;;7.72;1.90;;;;;;;15.23;79.86;100213.44;4987414;28;20026;-66
2022/10/24 04:04:21;;;;;;;5.60;2.17;;;;;;;15.25;79.67;100225.03;4986668;28;20527;-67
2022/10/24 04:06:47;;;;;;;7.63;1.90;;;;;;;15.18;80.26;100216.19;4988293;28;20038;-67
2022/10/24 04:09:12;;;;;;;9.40;2.22;;;;;;;15.22;80.18;100219.25;4987768;28;20054;-67
2022/10/24 04:11:37;;;;;;;7.22;2.28;;;;;;;15.29;79.71;100226.16;4987655;28;20387;-67
2022/10/24 04:14:03;;;;;;;6.47;2.00;;;;;;;15.25;80.09;100225.03;4985665;28;20101;-66
2022/10/24 04:16:31;;;;;;;7.35;2.22;;;;;;;15.35;79.51;100228.91;4986868;28;20027;-67
2022/10/24 04:18:56;;;;;;;10.73;2.85;;;;;;;15.40;79.35;100215.91;4986687;28;20382;-67
2022/10/24 04:21:21;;;;;;;9.98;2.33;;;;;;;15.43;78.98;100226.41;4986229;28;20045;-67
2022/10/24 04:23:46;;;;;;;7.23;2.10;;;;;;;15.40;79.13;100210.38;4986695;28;20030;-67
2022/10/24 04:26:14;;;;;;;8.60;2.30;;;;;;;15.42;79.14;100207.34;4986882;28;20289;-67
2022/10/24 04:28:39;;;;;;;5.72;1.92;;;;;;;15.37;79.53;100208.16;4986721;28;20038;-67
2022/10/24 04:31:05;;;;;;;6.65;2.40;;;;;;;15.39;79.10;100207.88;4987956;28;20033;-67
2022/10/24 04:33:30;;;;;;;7.18;2.03;;;;;;;15.39;79.18;100219.78;4987320;28;20072;-67
2022/10/24 04:35:55;;;;;;;8.50;2.03;;;;;;;15.41;79.04;100209.28;4986134;28;20030;-68
2022/10/24 04:38:21;;;;;;;8.18;2.15;;;;;;;15.43;78.74;100200.69;4984469;28;20038;-67
2022/10/24 04:40:52;;;;;;;7.45;2.10;;;;;;;15.43;79.04;100209.81;4987050;28;20042;-67
2022/10/24 04:43:18;;;;;;;9.00;2.28;;;;;;;15.45;78.47;100207.59;4987258;28;20625;-67
2022/10/24 04:45:44;;;;;;;7.28;2.20;;;;;;;15.40;78.39;100206.78;4987273;28;20080;-67
2022/10/24 04:48:09;;;;;;;5.63;2.17;;;;;;;15.41;78.13;100212.03;4987452;28;20030;-67
2022/10/24 04:50:35;;;;;;;8.00;2.17;;;;;;;15.35;78.90;100223.38;4987297;28;20470;-67
2022/10/24 04:53:00;;;;;;;7.00;1.85;;;;;;;15.32;78.73;100222.84;4983509;28;20019;-67
2022/10/24 04:55:26;;;;;;;8.85;2.10;;;;;;;15.35;78.84;100218.66;4982674;28;20034;-67
2022/10/24 04:57:51;;;;;;;8.85;2.65;;;;;;;15.32;78.92;100216.47;4987486;28;20029;-67
2022/10/24 05:00:17;;;;;;;8.13;2.17;;;;;;;15.30;78.99;100224.22;4987759;28;20126;-67
2022/10/24 05:02:42;;;;;;;9.18;1.98;;;;;;;15.39;78.48;100227.25;4987980;28;20035;-67
2022/10/24 05:05:07;;;;;;;7.30;2.15;;;;;;;15.39;78.51;100224.47;4986941;28;20542;-67
2022/10/24 05:07:32;;;;;;;8.20;3.08;;;;;;;15.42;78.36;100224.78;4986355;28;20050;-67
2022/10/24 05:09:58;;;;;;;7.90;1.98;;;;;;;15.40;78.29;100235.28;4985466;28;20038;-67
2022/10/24 05:12:23;;;;;;;6.32;2.00;;;;;;;15.41;78.72;100225.88;4987352;28;20373;-67
2022/10/24 05:14:48;;;;;;;8.82;2.50;;;;;;;15.35;79.10;100234.44;4987400;28;20023;-67
2022/10/24 05:17:13;;;;;;;7.47;1.90;;;;;;;15.34;78.97;100230.84;4987965;28;20545;-67
2022/10/24 05:19:39;;;;;;;5.93;1.83;;;;;;;15.40;78.60;100229.72;4986077;28;20035;-67
2022/10/24 05:22:05;;;;;;;14.60;2.40;;;;;;;15.32;79.24;100235.84;4979121;28;20109;-67
2022/10/24 05:24:30;;;;;;;10.10;2.17;;;;;;;15.31;79.25;100248.84;4967901;28;20383;-67
2022/10/24 05:26:55;;;;;;;9.25;2.53;;;;;;;15.39;79.10;100241.09;4967740;28;20043;-67
2022/10/24 05:29:21;;;;;;;10.38;2.20;;;;;;;15.41;79.01;100234.19;4968097;28;20027;-67
2022/10/24 05:31:46;;;;;;;7.95;2.47;;;;;;;15.47;78.98;100248.84;4979738;28;20030;-67
2022/10/24 05:34:11;;;;;;;10.25;2.35;;;;;;;15.48;79.14;100256.88;4986100;28;20030;-67
2022/10/24 05:36:37;;;;;;;8.85;2.67;;;;;;;15.50;79.39;100251.03;5002738;28;20393;-66
2022/10/24 05:39:02;;;;;;;11.30;2.45;;;;;;;15.48;79.73;100244.97;4985126;28;20037;-67
2022/10/24 05:41:27;;;;;;;8.18;2.58;;;;;;;15.53;79.34;100247.72;4986355;28;20085;-67
2022/10/24 05:43:53;;;;;;;10.80;2.42;;;;;;;15.54;79.28;100244.66;4985512;28;20034;-67
2022/10/24 05:46:18;;;;;;;11.20;2.70;;;;;;;15.53;79.87;100242.19;4987112;28;20080;-67
2022/10/24 05:48:43;;;;;;;9.63;2.42;;;;;;;15.56;79.46;100256.31;4986287;28;20026;-67
2022/10/24 05:51:09;;;;;;;10.93;2.65;;;;;;;15.57;79.84;100232.22;4986630;28;20166;-67
2022/10/24 05:53:34;;;;;;;9.98;2.50;;;;;;;15.52;79.82;100243.31;4989648;28;20058;-67
2022/10/24 05:55:59;;;;;;;10.50;2.55;;;;;;;15.55;79.31;100239.97;4990982;28;20050;-67
2022/10/24 05:58:26;;;;;;;10.27;2.08;;;;;;;15.45;80.16;100237.19;4990646;28;20038;-67
2022/10/24 06:00:52;;;;;;;12.98;2.70;;;;;;;15.45;79.98;100254.63;4990889;28;20023;-67
2022/10/24 06:03:17;;;;;;;13.90;2.92;;;;;;;15.42;80.24;100257.97;4990570;28;20081;-67
2022/10/24 06:05:42;;;;;;;14.48;2.40;;;;;;;15.44;80.00;100255.75;4989810;28;20593;-67
2022/10/24 06:08:07;;;;;;;13.20;2.78;;;;;;;15.47;79.18;100257.16;4989613;28;20054;-67
2022/10/24 06:10:33;;;;;;;10.45;2.45;;;;;;;15.53;79.15;100261.56;4990371;28;20113;-67
2022/10/24 06:12:59;;;;;;;18.00;3.72;;;;;;;15.48;79.26;100254.09;4990365;28;20054;-67
2022/10/24 06:15:24;;;;;;;12.02;2.60;;;;;;;15.46;79.48;100253.56;4990508;28;20375;-67
2022/10/24 06:17:49;;;;;;;11.05;2.65;;;;;;;15.42;79.87;100252.44;4990167;28;20026;-67
2022/10/24 06:20:15;;;;;;;11.60;2.65;;;;;;;15.40;80.09;100260.16;4990111;28;20025;-67
2022/10/24 06:22:43;;;;;;;13.98;2.92;;;;;;;15.33;80.09;100270.69;4990286;28;20109;-67
2022/10/24 06:25:10;;;;;;;12.88;2.60;;;;;;;15.41;79.74;100263.75;4989663;28;20468;-67
2022/10/24 06:27:35;;;;;;;16.95;2.70;;;;;;;15.40;79.78;100265.72;4989928;28;20707;-67
2022/10/24 06:30:00;;;;;;;17.50;4.00;;;;;;;15.41;79.90;100266.53;4990285;28;20426;-67
2022/10/24 06:32:25;;;;;;;16.23;2.88;;;;;;;15.38;80.29;100261.56;4990295;28;20049;-67
2022/10/24 06:34:51;;;;;;;15.07;2.78;;;;;;;15.30;81.00;100272.06;4988939;28;20073;-67
2022/10/24 06:37:16;;;;;;;16.98;2.97;;;;;;;15.28;80.90;100276.22;4990618;28;20051;-66
2022/10/24 06:39:41;;;;;;;11.00;3.00;;;;;;;15.27;81.38;100275.41;4989416;28;20118;-67
2022/10/24 06:42:07;;;;;;;15.93;3.33;;;;;;;15.23;81.62;100277.06;4976416;28;20023;-67
2022/10/24 06:44:32;;;;;;;21.65;4.38;;;;;;;15.23;81.68;100284.53;4976636;28;20060;-67
2022/10/24 06:46:57;;;;;;;16.15;2.83;;;;;;;15.20;81.92;100294.19;4989970;28;20500;-67
2022/10/24 06:49:23;;;;;;;18.30;3.35;;;;;;;15.17;82.12;100288.41;4989208;28;20030;-67
2022/10/24 06:51:48;;;;;;;24.38;3.97;;;;;;;15.15;82.34;100301.66;4999864;28;20121;-67
2022/10/24 06:54:14;;;;;;;16.25;3.58;;;;;;;15.26;81.85;100304.19;5008845;28;20101;-67
2022/10/24 06:56:39;;;;;;;18.92;3.92;;;;;;;15.25;81.87;100302.50;5009644;28;20064;-67
2022/10/24 06:59:14;;;;;;;17.55;3.95;;;;;;;15.29;81.68;100302.78;4992358;28;20058;-67
2022/10/24 07:01:40;;;;;;;16.92;3.33;;;;;;;15.29;81.68;100313.84;4989390;28;20030;-67
2022/10/24 07:04:06;;;;;;;19.55;3.70;;;;;;;15.37;81.49;100313.31;4988403;28;20080;-67
2022/10/24 07:06:32;;;;;;;17.67;3.15;;;;;;;15.45;81.11;100317.47;4988186;28;20018;-67
2022/10/24 07:08:59;;;;;;;14.43;2.83;;;;;;;15.51;80.80;100314.44;4987779;28;20538;-67
2022/10/24 07:11:25;;;;;;;18.00;2.97;;;;;;;15.49;81.01;100318.56;4988269;28;20477;-67
2022/10/24 07:13:51;;;;;;;20.60;3.50;;;;;;;15.44;81.23;100311.09;4989046;28;20045;-67
2022/10/24 07:16:17;;;;;;;17.70;4.13;;;;;;;15.46;81.18;100325.50;4989398;28;20034;-67
2022/10/24 07:18:43;;;;;;;14.07;2.92;;;;;;;15.42;81.96;100321.63;4988938;28;20061;-67
2022/10/24 07:21:16;;;;;;;15.25;3.75;;;;;;;15.41;82.61;100328.28;4988272;28;20489;-67
2022/10/24 07:23:42;;;;;;;13.90;3.13;;;;;;;15.42;82.70;100331.88;4985620;28;20389;-66
2022/10/24 07:26:10;;;;;;;20.27;3.60;;;;;;;15.35;83.54;100343.19;4988328;28;20049;-67
2022/10/24 07:28:36;;;;;;;;;;;;;;;15.39;83.35;100355.38;4989244;28;20525;-67
2022/10/24 07:31:01;;;;;;;19.63;3.08;;;;;;;15.36;84.40;100355.94;4988557;28;20024;-67
2022/10/24 07:33:27;;;;;;;21.70;3.95;;;;;;;15.48;83.78;100355.66;4988012;28;20105;-67
2022/10/24 07:35:52;;;;;;;17.30;4.00;;;;;;;15.51;84.67;100375.31;4988096;28;20042;-66
2022/10/24 07:38:17;;;;;;;22.48;4.65;;;;;;;15.62;83.96;100369.81;4987958;28;20062;-66
2022/10/24 07:40:43;;;;;;;21.00;3.57;;;;;;;15.63;84.18;100365.91;4985094;28;20046;-66
2022/10/24 07:43:08;;;;;;;16.58;2.90;;;;;;;15.60;83.83;100370.06;4986866;28;20285;-66
2022/10/24 07:45:34;;;;;;;19.85;3.10;;;;;;;15.55;83.56;100384.72;4986141;28;20022;-67
2022/10/24 07:47:59;;;;;;;18.90;4.70;;;;;;;15.67;82.37;100380.91;4985902;28;20038;-66
2022/10/24 07:50:27;;;;;;;19.05;3.95;;;;;;;15.70;82.79;100388.66;4986413;28;20465;-66
2022/10/24 07:52:52;;;;;;;16.05;3.30;;;;;;;15.74;81.95;100381.47;4976829;28;20026;-66
2022/10/24 07:55:18;;;;;;;23.80;3.63;;;;;;;15.64;83.49;100381.44;4985470;28;20084;-66
2022/10/24 07:57:43;;;;;;;19.10;3.40;;;;;;;15.61;83.77;100401.34;4985260;28;20033;-66
2022/10/24 08:00:09;;;;;;;19.67;3.53;;;;;;;15.52;84.29;100407.44;4984376;28;20311;-66
2022/10/24 08:02:34;;;;;;;19.60;2.97;;;;;;;15.51;84.45;100416.00;4985947;28;20050;-67
2022/10/24 08:05:00;;;;;;;24.70;4.05;;;;;;;15.62;84.00;100403.03;4986877;28;20112;-67
2022/10/24 08:07:25;;;;;;;15.20;3.30;;;;;;;15.71;83.49;100402.22;4984125;28;20149;-67
2022/10/24 08:09:50;;;;;;;16.85;3.45;;;;;;;15.78;83.38;100400.00;4994254;28;20040;-67
2022/10/24 08:12:16;;;;;;;18.88;3.33;;;;;;;15.97;81.75;100410.53;4987452;28;20042;-66
2022/10/24 08:14:42;;;;;;;15.68;3.42;;;;;;;16.20;80.76;100407.19;4986399;28;20033;-66
2022/10/24 08:17:08;;;;;;;15.18;3.05;;;;;;;16.20;79.38;100409.13;4989359;28;20674;-66
2022/10/24 08:19:33;;;;;;;15.98;2.67;;;;;;;16.14;80.10;100418.56;4985076;28;20381;-67
2022/10/24 08:21:59;;;;;;;17.55;3.65;;;;;;;16.13;80.30;100428.00;4986006;28;20026;-66
2022/10/24 08:24:25;;;;;;;19.17;3.15;;;;;;;16.15;80.86;100414.69;4986741;28;20030;-66
2022/10/24 08:26:51;;;;;;;24.92;3.17;;;;;;;16.31;79.95;100421.84;4986756;28;20378;-67
2022/10/24 08:29:21;;;;;;;14.88;2.92;;;;;;;16.43;79.86;100443.75;4983220;28;20027;-67
2022/10/24 08:31:52;;;;;;;19.23;3.08;;;;;;;16.54;78.84;100434.31;4984258;28;20042;-67
2022/10/24 08:34:18;;;;;;;13.10;3.42;;;;;;;16.50;78.83;100436.81;4983403;28;20061;-66
2022/10/24 08:36:44;;;;;;;19.67;4.22;;;;;;;16.61;77.46;100426.50;4990527;28;20129;-67
2022/10/24 08:39:10;;;;;;;16.10;3.10;;;;;;;16.52;77.45;100433.75;4984196;28;20397;-67
2022/10/24 08:42:03;;;;;;;16.13;2.75;;;;;;;16.73;78.00;100427.09;4982749;28;20026;-66
2022/10/24 08:44:29;;;;;;;15.75;3.55;;;;;;;17.94;72.60;100415.59;4970484;28;20031;-66
2022/10/24 08:47:13;;;;;;;14.73;2.33;;;;;;;19.24;68.95;100420.34;4973873;28;20036;-66
2022/10/24 08:49:47;;;;;;;13.55;2.35;;;;;;;20.82;63.18;100421.41;4975385;28;20747;-66
2022/10/24 08:52:31;;;;;;;12.38;2.60;;;;;;;21.67;57.37;100411.47;4971763;28;20101;-66
2022/10/24 08:54:59;;;;;;;14.68;2.60;;;;;;;22.26;54.60;100429.06;4976715;28;20033;-66
2022/10/24 08:57:30;;;;;;;12.68;2.40;;;;;;;22.77;53.55;100424.06;4973424;28;20488;-66
2022/10/24 09:00:00;;;;;;;9.85;1.55;;;;;;;23.26;51.24;100428.53;4987076;28;20798;-66
2022/10/24 09:02:30;;;;;;;12.68;2.22;;;;;;;23.11;50.45;100431.78;4987075;28;20385;-66
2022/10/24 09:05:00;;;;;;;14.15;2.00;;;;;;;23.30;50.34;100446.34;4985709;28;20046;-66
2022/10/24 09:07:26;;;;;;;11.15;1.90;;;;;;;23.58;49.04;100456.47;4984846;28;20050;-67
2022/10/24 09:10:02;;;;;;;9.43;2.40;;;;;;;23.77;49.65;100448.59;4981985;28;20045;-67
2022/10/24 09:12:27;;;;;;;10.45;1.88;;;;;;;24.11;47.38;100444.13;4983653;28;20034;-66
2022/10/24 09:14:57;;;;;;;10.05;1.60;;;;;;;23.62;48.12;100444.28;4982404;28;20084;-67
2022/10/24 09:17:28;;;;;;;9.10;1.55;;;;;;;23.62;48.05;100458.28;4984353;28;20027;-66
2022/10/24 09:19:57;;;;;;;6.45;1.33;;;;;;;24.04;46.44;100453.88;4984051;28;20042;-67
2022/10/24 09:22:26;;;;;;;7.95;1.60;;;;;;;23.94;45.86;100445.81;4989501;28;20523;-66
2022/10/24 09:24:59;;;;;;;9.35;1.73;;;;;;;24.73;45.57;100461.34;4984268;28;20063;-66
2022/10/24 09:27:37;;;;;;;8.40;1.60;;;;;;;24.77;45.66;100462.34;4990077;28;20437;-66
2022/10/24 09:30:05;;;;;;;8.07;1.58;;;;;;;23.83;45.33;100464.13;4988200;28;20042;-66
2022/10/24 09:32:32;;;;;;;;;;;;;;;23.46;49.29;100469.13;4988230;28;20022;-66
2022/10/24 09:35:00;;;;;;;6.80;2.17;;;;;;;23.22;48.30;100454.75;4976775;28;19922;-66
2022/10/24 09:37:42;;;;;;;8.65;1.52;;;;;;;23.53;48.25;100461.06;4988825;28;20297;-66
2022/10/24 09:40:18;;;;;;;7.72;1.60;;;;;;;23.09;47.69;100466.88;4988547;28;20088;-67
2022/10/24 09:42:49;;;;;;;6.47;1.65;;;;;;;23.37;48.59;100462.69;4988297;28;20037;-66
2022/10/24 09:45:32;;;;;;;9.30;1.88;;;;;;;24.11;46.68;100464.59;4990717;28;20040;-66
2022/10/24 09:48:23;;;;;;;9.77;1.65;;;;;;;25.32;44.03;100472.72;4986935;28;20038;-66
2022/10/24 09:50:51;;;;;;;7.65;1.67;;;;;;;25.48;42.86;100483.38;4979464;28;20049;-67
2022/10/24 09:53:27;;;;;;;6.25;1.55;;;;;;;25.62;41.67;100481.97;4996716;28;20045;-67
2022/10/24 09:55:59;;;;;;;7.35;1.60;;;;;;;25.13;43.19;100494.78;4991589;28;20033;-67
2022/10/24 09:58:31;;;;;;;13.27;1.83;;;;;;;24.79;43.24;100495.72;4989026;28;20444;-67
2022/10/24 10:01:02;;;;;;;10.50;1.90;;;;;;;24.54;44.15;100511.47;4993774;28;20030;-64
2022/10/24 10:03:28;;;;;;;8.90;1.60;;;;;;;24.87;44.24;100499.66;4989506;28;20052;-65
2022/10/24 10:05:59;;;;;;;9.80;1.80;;;;;;;24.22;45.55;100505.19;4996284;28;20403;-65
2022/10/24 10:08:34;;;;;;;10.30;2.40;;;;;;;24.15;45.51;100504.06;4988890;28;20062;-65
2022/10/24 10:11:03;;;;;;;8.95;1.40;;;;;;;24.66;43.66;100519.22;4982314;28;20026;-65
2022/10/24 10:13:30;;;;;;;7.15;1.45;;;;;;;24.07;43.83;100509.31;4991116;28;20030;-65
2022/10/24 10:15:58;;;;;;;9.52;1.80;;;;;;;23.86;46.03;100510.31;4990025;28;20033;-65
2022/10/24 10:18:36;;;;;;;9.48;1.83;;;;;;;24.24;44.79;100519.72;4988731;28;20370;-65
2022/10/24 10:21:10;;;;;;;8.88;1.92;;;;;;;24.23;45.58;100532.13;4990494;28;20165;-65
2022/10/24 10:23:55;;;;;;;12.23;2.00;;;;;;;24.12;44.18;100527.97;4987234;28;20585;-65
2022/10/24 10:26:26;;;;;;;8.88;2.10;;;;;;;23.25;46.77;100533.34;4990850;28;20038;-65
2022/10/24 10:28:56;;;;;;;9.35;2.40;;;;;;;23.20;47.25;100555.91;4990215;28;20034;-65
2022/10/24 10:31:45;;;;;;;9.85;2.72;;;;;;;22.91;48.58;100538.78;4989885;28;20120;-64
2022/10/24 10:34:46;;;;;;;11.18;2.08;;;;;;;22.20;50.94;100541.38;4988256;28;20038;-65
2022/10/24 10:37:31;;;;;;;11.20;2.35;;;;;;;21.36;52.62;100547.41;4985910;28;20046;-64
2022/10/24 10:40:21;;;;;;;11.55;2.65;;;;;;;20.37;55.80;100554.16;4989264;28;20031;-65
2022/10/24 10:43:13;;;;;;;9.18;1.90;;;;;;;19.69;57.41;100555.44;4989691;28;20045;-65
2022/10/24 10:46:07;;;;;;;10.63;2.42;;;;;;;19.56;58.76;100554.16;4990243;28;20550;-65
2022/10/24 10:48:50;;;;;;;8.55;2.22;;;;;;;20.65;56.58;100549.56;4976987;28;20042;-65
2022/10/24 10:51:31;;;;;;;9.15;2.58;;;;;;;22.07;52.99;100554.25;4989710;28;20092;-65
2022/10/24 10:54:37;;;;;;;10.90;1.83;;;;;;;21.54;53.19;100577.22;4988463;28;20045;-65
2022/10/24 10:57:09;;;;;;;9.80;1.98;;;;;;;20.62;54.78;100578.06;4988491;28;20038;-65
2022/10/24 11:00:24;;;;;;;7.03;1.80;;;;;;;20.15;56.69;100560.38;4990021;28;20030;-65
2022/10/24 11:03:04;;;;;;;8.45;1.50;;;;;;;19.05;59.18;100577.03;4965591;28;20035;-65
2022/10/24 11:05:36;;;;;;;9.18;2.00;;;;;;;18.78;60.71;100582.31;4985917;28;20073;-65
2022/10/24 11:08:18;;;;;;;10.32;2.05;;;;;;;18.50;61.82;100575.53;4984032;28;20393;-65
2022/10/24 11:10:52;;;;;;;10.73;2.10;;;;;;;18.10;62.57;100583.91;4990028;28;20034;-65
2022/10/24 11:13:26;;;;;;;9.15;2.55;;;;;;;18.49;62.87;100585.84;4989638;28;20041;-65
2022/10/24 11:15:56;;;;;;;13.02;2.53;;;;;;;19.08;61.44;100587.59;4989802;28;20389;-65
2022/10/24 11:18:33;;;;;;;8.15;2.20;;;;;;;20.53;57.65;100575.16;4987073;28;20058;-65
2022/10/24 11:21:02;;;;;;;;;;;;;;;22.28;53.86;100563.03;4988756;28;20124;-65
2022/10/24 11:23:42;;;;;;;9.20;2.00;;;;;;;22.98;50.96;100578.41;4989384;28;19983;-65
2022/10/24 11:26:19;;;;;;;9.20;2.08;;;;;;;23.80;49.40;100583.38;4989638;28;20371;-65
2022/10/24 11:29:13;;;;;;;13.30;2.10;;;;;;;24.63;47.16;100585.28;4989088;28;20041;-65
2022/10/24 11:31:56;;;;;;;8.07;1.80;;;;;;;23.45;49.99;100570.38;4988385;28;20449;-65
2022/10/24 11:34:39;;;;;;;9.23;1.58;;;;;;;23.33;50.37;100581.38;4988794;28;20034;-65
2022/10/24 11:37:17;;;;;;;9.13;2.05;;;;;;;23.27;50.19;100594.72;4989170;28;20425;-65